sensor_id;sensor_type;location;lat;lon;timestamp;temperature;humidity
19522;DHT22;9905;52.126;5.596;2023-10-19T00:02:08;10.70;99.90
19522;DHT22;9905;52.126;5.596;2023-10-19T00:04:34;10.70;99.90
19522;DHT22;9905;52.126;5.596;2023-10-19T00:07:02;10.70;99.90
19522;DHT22;9905;52.126;5.596;2023-10-19T00:09:30;10.70;99.90
19522;DHT22;9905;52.126;5.596;2023-10-19T00:12:03;10.70;99.90
19522;DHT22;9905;52.126;5.596;2023-10-19T00:14:30;10.80;99.90
19522;DHT22;9905;52.126;5.596;2023-10-19T00:16:57;10.80;99.90
19522;DHT22;9905;52.126;5.596;2023-10-19T00:19:27;10.80;99.90
19522;DHT22;9905;52.126;5.596;2023-10-19T00:21:54;10.80;99.90
19522;DHT22;9905;52.126;5.596;2023-10-19T00:24:21;10.90;99.90
19522;DHT22;9905;52.126;5.596;2023-10-19T00:26:49;10.90;99.90
19522;DHT22;9905;52.126;5.596;2023-10-19T00:29:19;10.90;99.90
19522;DHT22;9905;52.126;5.596;2023-10-19T00:31:57;11.00;99.90
19522;DHT22;9905;52.126;5.596;2023-10-19T00:34:23;10.90;99.90
19522;DHT22;9905;52.126;5.596;2023-10-19T00:36:52;10.90;99.90
19522;DHT22;9905;52.126;5.596;2023-10-19T00:39:21;11.00;99.90
19522;DHT22;9905;52.126;5.596;2023-10-19T00:41:48;11.00;99.90
19522;DHT22;9905;52.126;5.596;2023-10-19T00:44:16;11.00;99.90
19522;DHT22;9905;52.126;5.596;2023-10-19T00:46:48;11.10;99.90
19522;DHT22;9905;52.126;5.596;2023-10-19T00:49:25;11.10;99.90
19522;DHT22;9905;52.126;5.596;2023-10-19T00:51:56;11.10;99.90
19522;DHT22;9905;52.126;5.596;2023-10-19T00:54:30;11.10;99.90
19522;DHT22;9905;52.126;5.596;2023-10-19T00:57:06;11.20;99.90
19522;DHT22;9905;52.126;5.596;2023-10-19T00:59:34;11.30;99.90
19522;DHT22;9905;52.126;5.596;2023-10-19T01:02:04;11.20;99.90
19522;DHT22;9905;52.126;5.596;2023-10-19T01:04:43;11.30;99.90
19522;DHT22;9905;52.126;5.596;2023-10-19T01:07:13;11.30;99.90
19522;DHT22;9905;52.126;5.596;2023-10-19T01:09:47;11.30;99.90
19522;DHT22;9905;52.126;5.596;2023-10-19T01:12:18;11.40;99.90
19522;DHT22;9905;52.126;5.596;2023-10-19T01:15:02;11.40;99.90
19522;DHT22;9905;52.126;5.596;2023-10-19T01:17:31;11.40;99.90
19522;DHT22;9905;52.126;5.596;2023-10-19T01:19:59;11.40;99.90
19522;DHT22;9905;52.126;5.596;2023-10-19T01:22:51;11.50;99.90
19522;DHT22;9905;52.126;5.596;2023-10-19T01:25:31;11.50;99.90
19522;DHT22;9905;52.126;5.596;2023-10-19T01:28:06;11.60;99.90
19522;DHT22;9905;52.126;5.596;2023-10-19T01:30:33;11.60;99.90
19522;DHT22;9905;52.126;5.596;2023-10-19T01:33:01;11.60;99.90
19522;DHT22;9905;52.126;5.596;2023-10-19T01:35:29;11.60;99.90
19522;DHT22;9905;52.126;5.596;2023-10-19T01:38:18;11.70;99.90
19522;DHT22;9905;52.126;5.596;2023-10-19T01:40:44;11.70;99.90
19522;DHT22;9905;52.126;5.596;2023-10-19T01:43:14;11.80;99.90
19522;DHT22;9905;52.126;5.596;2023-10-19T01:45:47;11.90;99.90
19522;DHT22;9905;52.126;5.596;2023-10-19T01:48:14;11.90;99.90
19522;DHT22;9905;52.126;5.596;2023-10-19T01:50:41;12.00;99.90
19522;DHT22;9905;52.126;5.596;2023-10-19T01:53:08;12.10;99.90
19522;DHT22;9905;52.126;5.596;2023-10-19T01:55:42;12.20;99.90
19522;DHT22;9905;52.126;5.596;2023-10-19T01:58:09;12.20;99.90
19522;DHT22;9905;52.126;5.596;2023-10-19T02:00:35;12.20;99.90
19522;DHT22;9905;52.126;5.596;2023-10-19T02:03:07;12.30;99.90
19522;DHT22;9905;52.126;5.596;2023-10-19T02:05:33;12.30;99.90
19522;DHT22;9905;52.126;5.596;2023-10-19T02:08:06;12.30;99.90
19522;DHT22;9905;52.126;5.596;2023-10-19T02:10:33;12.40;99.90
19522;DHT22;9905;52.126;5.596;2023-10-19T02:13:02;12.40;99.90
19522;DHT22;9905;52.126;5.596;2023-10-19T02:15:33;12.40;99.90
19522;DHT22;9905;52.126;5.596;2023-10-19T02:18:00;12.50;99.90
19522;DHT22;9905;52.126;5.596;2023-10-19T02:20:28;12.50;99.90
19522;DHT22;9905;52.126;5.596;2023-10-19T02:22:54;12.50;99.90
19522;DHT22;9905;52.126;5.596;2023-10-19T02:25:23;12.60;99.90
19522;DHT22;9905;52.126;5.596;2023-10-19T02:27:50;12.60;99.90
19522;DHT22;9905;52.126;5.596;2023-10-19T02:30:19;12.60;99.90
19522;DHT22;9905;52.126;5.596;2023-10-19T02:32:44;12.70;99.90
19522;DHT22;9905;52.126;5.596;2023-10-19T02:35:13;12.70;99.90
19522;DHT22;9905;52.126;5.596;2023-10-19T02:37:39;12.70;99.90
19522;DHT22;9905;52.126;5.596;2023-10-19T02:40:07;12.80;99.90
19522;DHT22;9905;52.126;5.596;2023-10-19T02:42:38;12.80;99.90
19522;DHT22;9905;52.126;5.596;2023-10-19T02:45:07;12.90;99.90
19522;DHT22;9905;52.126;5.596;2023-10-19T02:47:34;12.80;99.90
19522;DHT22;9905;52.126;5.596;2023-10-19T02:50:01;12.90;99.90
19522;DHT22;9905;52.126;5.596;2023-10-19T02:52:35;12.90;99.90
19522;DHT22;9905;52.126;5.596;2023-10-19T02:55:03;12.90;99.90
19522;DHT22;9905;52.126;5.596;2023-10-19T02:57:30;13.00;99.90
19522;DHT22;9905;52.126;5.596;2023-10-19T02:59:57;13.00;99.90
19522;DHT22;9905;52.126;5.596;2023-10-19T03:02:24;13.00;99.90
19522;DHT22;9905;52.126;5.596;2023-10-19T03:04:53;13.00;99.90
19522;DHT22;9905;52.126;5.596;2023-10-19T03:07:20;13.00;99.90
19522;DHT22;9905;52.126;5.596;2023-10-19T03:09:47;13.00;99.90
19522;DHT22;9905;52.126;5.596;2023-10-19T03:12:19;13.10;99.90
19522;DHT22;9905;52.126;5.596;2023-10-19T03:14:45;13.10;99.90
19522;DHT22;9905;52.126;5.596;2023-10-19T03:17:14;13.10;99.90
19522;DHT22;9905;52.126;5.596;2023-10-19T03:19:39;13.20;99.90
19522;DHT22;9905;52.126;5.596;2023-10-19T03:22:09;13.20;99.90
19522;DHT22;9905;52.126;5.596;2023-10-19T03:24:37;13.20;99.90
19522;DHT22;9905;52.126;5.596;2023-10-19T03:27:07;13.20;99.90
19522;DHT22;9905;52.126;5.596;2023-10-19T03:29:38;13.30;99.90
19522;DHT22;9905;52.126;5.596;2023-10-19T03:32:05;13.30;99.90
19522;DHT22;9905;52.126;5.596;2023-10-19T03:34:33;13.30;99.90
19522;DHT22;9905;52.126;5.596;2023-10-19T03:37:00;13.30;99.90
19522;DHT22;9905;52.126;5.596;2023-10-19T03:39:33;13.30;99.90
19522;DHT22;9905;52.126;5.596;2023-10-19T03:42:01;13.30;99.90
19522;DHT22;9905;52.126;5.596;2023-10-19T03:44:31;13.40;99.90
19522;DHT22;9905;52.126;5.596;2023-10-19T03:47:08;13.40;99.90
19522;DHT22;9905;52.126;5.596;2023-10-19T03:49:38;13.40;99.90
19522;DHT22;9905;52.126;5.596;2023-10-19T03:52:06;13.40;99.90
19522;DHT22;9905;52.126;5.596;2023-10-19T03:54:48;13.40;99.90
19522;DHT22;9905;52.126;5.596;2023-10-19T03:57:16;13.40;99.90
19522;DHT22;9905;52.126;5.596;2023-10-19T03:59:48;13.40;99.90
19522;DHT22;9905;52.126;5.596;2023-10-19T04:02:18;13.40;99.90
19522;DHT22;9905;52.126;5.596;2023-10-19T04:04:46;13.40;99.90
19522;DHT22;9905;52.126;5.596;2023-10-19T04:07:14;13.40;99.90
19522;DHT22;9905;52.126;5.596;2023-10-19T04:09:48;13.50;99.90
19522;DHT22;9905;52.126;5.596;2023-10-19T04:12:25;13.50;99.90
19522;DHT22;9905;52.126;5.596;2023-10-19T04:14:54;13.50;99.90
19522;DHT22;9905;52.126;5.596;2023-10-19T04:17:21;13.50;99.90
19522;DHT22;9905;52.126;5.596;2023-10-19T04:19:49;13.50;99.90
19522;DHT22;9905;52.126;5.596;2023-10-19T04:22:16;13.50;99.90
19522;DHT22;9905;52.126;5.596;2023-10-19T04:24:50;13.50;99.90
19522;DHT22;9905;52.126;5.596;2023-10-19T04:27:17;13.60;99.90
19522;DHT22;9905;52.126;5.596;2023-10-19T04:29:47;13.60;99.90
19522;DHT22;9905;52.126;5.596;2023-10-19T04:32:15;13.60;99.90
19522;DHT22;9905;52.126;5.596;2023-10-19T04:34:50;13.70;99.90
19522;DHT22;9905;52.126;5.596;2023-10-19T04:37:17;13.70;99.90
19522;DHT22;9905;52.126;5.596;2023-10-19T04:39:44;13.70;99.90
19522;DHT22;9905;52.126;5.596;2023-10-19T04:42:13;13.70;99.90
19522;DHT22;9905;52.126;5.596;2023-10-19T04:44:40;13.70;99.90
19522;DHT22;9905;52.126;5.596;2023-10-19T04:47:06;13.70;99.90
19522;DHT22;9905;52.126;5.596;2023-10-19T04:49:33;13.70;99.90
19522;DHT22;9905;52.126;5.596;2023-10-19T04:52:00;13.60;99.90
19522;DHT22;9905;52.126;5.596;2023-10-19T04:54:28;13.60;99.90
19522;DHT22;9905;52.126;5.596;2023-10-19T04:56:55;13.60;99.90
19522;DHT22;9905;52.126;5.596;2023-10-19T04:59:23;13.60;99.90
19522;DHT22;9905;52.126;5.596;2023-10-19T05:01:50;13.60;99.90
19522;DHT22;9905;52.126;5.596;2023-10-19T05:04:17;13.60;99.90
19522;DHT22;9905;52.126;5.596;2023-10-19T05:06:44;13.60;99.90
19522;DHT22;9905;52.126;5.596;2023-10-19T05:09:10;13.60;99.90
19522;DHT22;9905;52.126;5.596;2023-10-19T05:11:37;13.60;99.90
19522;DHT22;9905;52.126;5.596;2023-10-19T05:14:05;13.60;99.90
19522;DHT22;9905;52.126;5.596;2023-10-19T05:16:33;13.70;99.90
19522;DHT22;9905;52.126;5.596;2023-10-19T05:19:00;13.70;99.90
19522;DHT22;9905;52.126;5.596;2023-10-19T05:21:27;13.70;99.90
19522;DHT22;9905;52.126;5.596;2023-10-19T05:23:55;13.70;99.90
19522;DHT22;9905;52.126;5.596;2023-10-19T05:26:22;13.70;99.90
19522;DHT22;9905;52.126;5.596;2023-10-19T05:28:49;13.70;99.90
19522;DHT22;9905;52.126;5.596;2023-10-19T05:31:16;13.70;99.90
19522;DHT22;9905;52.126;5.596;2023-10-19T05:33:44;13.70;99.90
19522;DHT22;9905;52.126;5.596;2023-10-19T05:36:13;13.70;99.90
19522;DHT22;9905;52.126;5.596;2023-10-19T05:38:40;13.70;99.90
19522;DHT22;9905;52.126;5.596;2023-10-19T05:41:07;13.70;99.90
19522;DHT22;9905;52.126;5.596;2023-10-19T05:43:34;13.80;99.90
19522;DHT22;9905;52.126;5.596;2023-10-19T05:46:01;13.80;99.90
19522;DHT22;9905;52.126;5.596;2023-10-19T05:48:27;13.80;99.90
19522;DHT22;9905;52.126;5.596;2023-10-19T05:50:55;13.80;99.90
19522;DHT22;9905;52.126;5.596;2023-10-19T05:53:22;13.80;99.90
19522;DHT22;9905;52.126;5.596;2023-10-19T05:55:49;13.80;99.90
19522;DHT22;9905;52.126;5.596;2023-10-19T05:58:16;13.80;99.90
19522;DHT22;9905;52.126;5.596;2023-10-19T06:00:42;13.80;99.90
19522;DHT22;9905;52.126;5.596;2023-10-19T06:03:09;13.90;99.90
19522;DHT22;9905;52.126;5.596;2023-10-19T06:05:36;13.80;99.90
19522;DHT22;9905;52.126;5.596;2023-10-19T06:08:04;13.80;99.90
19522;DHT22;9905;52.126;5.596;2023-10-19T06:10:31;13.80;99.90
19522;DHT22;9905;52.126;5.596;2023-10-19T06:12:58;13.80;99.90
19522;DHT22;9905;52.126;5.596;2023-10-19T06:15:25;13.90;99.90
19522;DHT22;9905;52.126;5.596;2023-10-19T06:17:54;13.90;99.90
19522;DHT22;9905;52.126;5.596;2023-10-19T06:20:21;13.90;99.90
19522;DHT22;9905;52.126;5.596;2023-10-19T06:22:52;13.90;99.90
19522;DHT22;9905;52.126;5.596;2023-10-19T06:25:22;13.90;99.90
19522;DHT22;9905;52.126;5.596;2023-10-19T06:27:49;13.90;99.90
19522;DHT22;9905;52.126;5.596;2023-10-19T06:30:17;13.90;99.90
19522;DHT22;9905;52.126;5.596;2023-10-19T06:32:46;14.00;99.90
19522;DHT22;9905;52.126;5.596;2023-10-19T06:35:13;14.00;99.90
19522;DHT22;9905;52.126;5.596;2023-10-19T06:37:40;14.00;99.90
19522;DHT22;9905;52.126;5.596;2023-10-19T06:40:08;14.00;99.90
19522;DHT22;9905;52.126;5.596;2023-10-19T06:42:38;14.00;99.90
19522;DHT22;9905;52.126;5.596;2023-10-19T06:45:06;14.10;99.90
19522;DHT22;9905;52.126;5.596;2023-10-19T06:47:33;14.10;99.90
19522;DHT22;9905;52.126;5.596;2023-10-19T06:50:04;14.10;99.90
19522;DHT22;9905;52.126;5.596;2023-10-19T06:52:33;14.10;99.90
19522;DHT22;9905;52.126;5.596;2023-10-19T06:55:01;14.10;99.90
19522;DHT22;9905;52.126;5.596;2023-10-19T06:57:29;14.10;99.90
19522;DHT22;9905;52.126;5.596;2023-10-19T06:59:57;14.10;99.90
19522;DHT22;9905;52.126;5.596;2023-10-19T07:02:23;14.10;99.90
19522;DHT22;9905;52.126;5.596;2023-10-19T07:04:51;14.10;99.90
19522;DHT22;9905;52.126;5.596;2023-10-19T07:07:18;14.10;99.90
19522;DHT22;9905;52.126;5.596;2023-10-19T07:09:45;14.10;99.90
19522;DHT22;9905;52.126;5.596;2023-10-19T07:12:12;14.10;99.90
19522;DHT22;9905;52.126;5.596;2023-10-19T07:14:38;14.20;99.90
19522;DHT22;9905;52.126;5.596;2023-10-19T07:17:07;14.20;99.90
19522;DHT22;9905;52.126;5.596;2023-10-19T07:19:34;14.20;99.90
19522;DHT22;9905;52.126;5.596;2023-10-19T07:22:02;14.20;99.90
19522;DHT22;9905;52.126;5.596;2023-10-19T07:24:29;14.20;99.90
19522;DHT22;9905;52.126;5.596;2023-10-19T07:26:56;14.20;99.90
19522;DHT22;9905;52.126;5.596;2023-10-19T07:29:31;14.20;99.90
19522;DHT22;9905;52.126;5.596;2023-10-19T07:31:59;14.20;99.90
19522;DHT22;9905;52.126;5.596;2023-10-19T07:34:27;14.20;99.90
19522;DHT22;9905;52.126;5.596;2023-10-19T07:36:55;14.20;99.90
19522;DHT22;9905;52.126;5.596;2023-10-19T07:39:24;14.30;99.90
19522;DHT22;9905;52.126;5.596;2023-10-19T07:41:52;14.30;99.90
19522;DHT22;9905;52.126;5.596;2023-10-19T07:44:18;14.30;99.90
19522;DHT22;9905;52.126;5.596;2023-10-19T07:46:45;14.30;99.90
19522;DHT22;9905;52.126;5.596;2023-10-19T07:49:12;14.30;99.90
19522;DHT22;9905;52.126;5.596;2023-10-19T07:51:45;14.40;99.90
19522;DHT22;9905;52.126;5.596;2023-10-19T07:54:12;14.40;99.90
19522;DHT22;9905;52.126;5.596;2023-10-19T07:56:39;14.40;99.90
19522;DHT22;9905;52.126;5.596;2023-10-19T07:59:06;14.40;99.90
19522;DHT22;9905;52.126;5.596;2023-10-19T08:01:33;14.40;99.90
19522;DHT22;9905;52.126;5.596;2023-10-19T08:04:00;14.40;99.90
19522;DHT22;9905;52.126;5.596;2023-10-19T08:06:26;14.50;99.90
19522;DHT22;9905;52.126;5.596;2023-10-19T08:08:55;14.40;99.90
19522;DHT22;9905;52.126;5.596;2023-10-19T08:11:23;14.40;99.90
19522;DHT22;9905;52.126;5.596;2023-10-19T08:13:50;14.50;99.90
19522;DHT22;9905;52.126;5.596;2023-10-19T08:16:17;14.50;99.90
19522;DHT22;9905;52.126;5.596;2023-10-19T08:18:43;14.50;99.90
19522;DHT22;9905;52.126;5.596;2023-10-19T08:21:10;14.50;99.90
19522;DHT22;9905;52.126;5.596;2023-10-19T08:23:38;14.50;99.90
19522;DHT22;9905;52.126;5.596;2023-10-19T08:26:07;14.50;99.90
19522;DHT22;9905;52.126;5.596;2023-10-19T08:28:34;14.60;99.90
19522;DHT22;9905;52.126;5.596;2023-10-19T08:31:00;14.60;99.90
19522;DHT22;9905;52.126;5.596;2023-10-19T08:33:27;14.60;99.90
19522;DHT22;9905;52.126;5.596;2023-10-19T08:35:55;14.60;99.90
19522;DHT22;9905;52.126;5.596;2023-10-19T08:38:23;14.60;99.90
19522;DHT22;9905;52.126;5.596;2023-10-19T08:40:50;14.70;99.90
19522;DHT22;9905;52.126;5.596;2023-10-19T08:43:18;14.70;99.90
19522;DHT22;9905;52.126;5.596;2023-10-19T08:45:46;14.70;99.90
19522;DHT22;9905;52.126;5.596;2023-10-19T08:48:14;14.70;99.90
19522;DHT22;9905;52.126;5.596;2023-10-19T08:50:41;14.80;99.90
19522;DHT22;9905;52.126;5.596;2023-10-19T08:53:09;14.80;99.90
19522;DHT22;9905;52.126;5.596;2023-10-19T08:55:39;14.80;99.90
19522;DHT22;9905;52.126;5.596;2023-10-19T08:58:06;14.90;99.90
19522;DHT22;9905;52.126;5.596;2023-10-19T09:00:45;14.90;99.90
19522;DHT22;9905;52.126;5.596;2023-10-19T09:03:14;14.90;99.90
19522;DHT22;9905;52.126;5.596;2023-10-19T09:05:42;15.00;99.90
19522;DHT22;9905;52.126;5.596;2023-10-19T09:08:14;15.00;99.90
19522;DHT22;9905;52.126;5.596;2023-10-19T09:10:43;15.10;99.90
19522;DHT22;9905;52.126;5.596;2023-10-19T09:13:11;15.10;99.90
19522;DHT22;9905;52.126;5.596;2023-10-19T09:15:41;15.10;99.90
19522;DHT22;9905;52.126;5.596;2023-10-19T09:18:16;15.20;99.90
19522;DHT22;9905;52.126;5.596;2023-10-19T09:20:45;15.20;99.90
19522;DHT22;9905;52.126;5.596;2023-10-19T09:23:20;15.30;99.90
19522;DHT22;9905;52.126;5.596;2023-10-19T09:25:48;15.30;99.90
19522;DHT22;9905;52.126;5.596;2023-10-19T09:28:15;15.40;99.90
19522;DHT22;9905;52.126;5.596;2023-10-19T09:30:43;15.40;99.90
19522;DHT22;9905;52.126;5.596;2023-10-19T09:33:10;15.50;99.90
19522;DHT22;9905;52.126;5.596;2023-10-19T09:35:41;15.70;99.90
19522;DHT22;9905;52.126;5.596;2023-10-19T09:38:09;15.80;99.90
19522;DHT22;9905;52.126;5.596;2023-10-19T09:40:36;16.00;99.90
19522;DHT22;9905;52.126;5.596;2023-10-19T09:43:05;16.10;99.90
19522;DHT22;9905;52.126;5.596;2023-10-19T09:45:37;16.10;99.90
19522;DHT22;9905;52.126;5.596;2023-10-19T09:48:08;16.10;99.90
19522;DHT22;9905;52.126;5.596;2023-10-19T09:50:44;16.20;99.90
19522;DHT22;9905;52.126;5.596;2023-10-19T09:53:14;16.20;99.90
19522;DHT22;9905;52.126;5.596;2023-10-19T09:55:41;16.30;99.90
19522;DHT22;9905;52.126;5.596;2023-10-19T09:58:12;16.30;99.90
19522;DHT22;9905;52.126;5.596;2023-10-19T10:00:43;16.50;99.90
19522;DHT22;9905;52.126;5.596;2023-10-19T10:03:41;16.50;99.90
19522;DHT22;9905;52.126;5.596;2023-10-19T10:06:10;16.60;99.90
19522;DHT22;9905;52.126;5.596;2023-10-19T10:08:40;16.70;99.90
19522;DHT22;9905;52.126;5.596;2023-10-19T10:11:19;16.70;99.90
19522;DHT22;9905;52.126;5.596;2023-10-19T10:13:48;16.80;99.90
19522;DHT22;9905;52.126;5.596;2023-10-19T10:16:18;16.90;99.90
19522;DHT22;9905;52.126;5.596;2023-10-19T10:18:47;17.00;99.90
19522;DHT22;9905;52.126;5.596;2023-10-19T10:21:18;17.00;99.90
19522;DHT22;9905;52.126;5.596;2023-10-19T10:23:50;17.10;99.90
19522;DHT22;9905;52.126;5.596;2023-10-19T10:26:18;17.20;99.90
19522;DHT22;9905;52.126;5.596;2023-10-19T10:29:08;17.20;99.90
19522;DHT22;9905;52.126;5.596;2023-10-19T10:31:41;17.20;99.90
19522;DHT22;9905;52.126;5.596;2023-10-19T10:34:09;17.30;99.90
19522;DHT22;9905;52.126;5.596;2023-10-19T10:36:58;17.30;99.90
19522;DHT22;9905;52.126;5.596;2023-10-19T10:39:26;17.30;99.90
19522;DHT22;9905;52.126;5.596;2023-10-19T10:41:56;17.30;99.90
19522;DHT22;9905;52.126;5.596;2023-10-19T10:44:36;17.30;99.90
19522;DHT22;9905;52.126;5.596;2023-10-19T10:47:04;17.30;99.90
19522;DHT22;9905;52.126;5.596;2023-10-19T10:49:33;17.40;99.90
19522;DHT22;9905;52.126;5.596;2023-10-19T10:52:01;17.40;99.90
19522;DHT22;9905;52.126;5.596;2023-10-19T10:54:28;17.40;99.90
19522;DHT22;9905;52.126;5.596;2023-10-19T10:56:55;17.40;99.90
19522;DHT22;9905;52.126;5.596;2023-10-19T10:59:21;17.30;99.90
19522;DHT22;9905;52.126;5.596;2023-10-19T11:01:48;17.40;99.90
19522;DHT22;9905;52.126;5.596;2023-10-19T11:04:15;17.40;99.90
19522;DHT22;9905;52.126;5.596;2023-10-19T11:06:49;17.40;99.90
19522;DHT22;9905;52.126;5.596;2023-10-19T11:09:17;17.40;99.90
19522;DHT22;9905;52.126;5.596;2023-10-19T11:11:45;17.40;99.90
19522;DHT22;9905;52.126;5.596;2023-10-19T11:14:11;17.50;99.90
19522;DHT22;9905;52.126;5.596;2023-10-19T11:16:38;17.50;99.90
19522;DHT22;9905;52.126;5.596;2023-10-19T11:19:05;17.50;99.90
19522;DHT22;9905;52.126;5.596;2023-10-19T11:21:32;17.50;99.90
19522;DHT22;9905;52.126;5.596;2023-10-19T11:23:59;17.50;99.90
19522;DHT22;9905;52.126;5.596;2023-10-19T11:26:28;17.50;99.90
19522;DHT22;9905;52.126;5.596;2023-10-19T11:28:59;17.60;99.90
19522;DHT22;9905;52.126;5.596;2023-10-19T11:31:27;17.70;99.90
19522;DHT22;9905;52.126;5.596;2023-10-19T11:34:03;17.80;99.90
19522;DHT22;9905;52.126;5.596;2023-10-19T11:36:30;17.80;99.90
19522;DHT22;9905;52.126;5.596;2023-10-19T11:38:57;17.90;99.90
19522;DHT22;9905;52.126;5.596;2023-10-19T11:41:24;17.90;99.90
19522;DHT22;9905;52.126;5.596;2023-10-19T11:43:52;17.90;99.90
19522;DHT22;9905;52.126;5.596;2023-10-19T11:46:18;17.90;99.90
19522;DHT22;9905;52.126;5.596;2023-10-19T11:48:48;17.90;99.90
19522;DHT22;9905;52.126;5.596;2023-10-19T11:51:15;18.00;99.90
19522;DHT22;9905;52.126;5.596;2023-10-19T11:53:42;18.10;99.90
19522;DHT22;9905;52.126;5.596;2023-10-19T11:56:10;18.20;99.90
19522;DHT22;9905;52.126;5.596;2023-10-19T11:58:38;18.40;99.90
19522;DHT22;9905;52.126;5.596;2023-10-19T12:01:09;18.40;99.90
19522;DHT22;9905;52.126;5.596;2023-10-19T12:03:37;18.40;99.90
19522;DHT22;9905;52.126;5.596;2023-10-19T12:06:06;18.40;99.90
19522;DHT22;9905;52.126;5.596;2023-10-19T12:08:33;18.40;99.90
19522;DHT22;9905;52.126;5.596;2023-10-19T12:11:00;18.40;99.90
19522;DHT22;9905;52.126;5.596;2023-10-19T12:13:29;18.40;99.90
19522;DHT22;9905;52.126;5.596;2023-10-19T12:15:56;18.50;99.90
19522;DHT22;9905;52.126;5.596;2023-10-19T12:18:25;18.50;99.90
19522;DHT22;9905;52.126;5.596;2023-10-19T12:20:54;18.50;99.90
19522;DHT22;9905;52.126;5.596;2023-10-19T12:23:22;18.40;99.90
19522;DHT22;9905;52.126;5.596;2023-10-19T12:25:49;18.40;99.90
19522;DHT22;9905;52.126;5.596;2023-10-19T12:28:16;18.40;99.90
19522;DHT22;9905;52.126;5.596;2023-10-19T12:30:43;18.30;99.90
19522;DHT22;9905;52.126;5.596;2023-10-19T12:33:10;18.30;99.90
19522;DHT22;9905;52.126;5.596;2023-10-19T12:35:42;18.30;99.90
19522;DHT22;9905;52.126;5.596;2023-10-19T12:38:11;18.30;99.90
19522;DHT22;9905;52.126;5.596;2023-10-19T12:40:43;18.20;99.90
19522;DHT22;9905;52.126;5.596;2023-10-19T12:43:12;18.20;99.90
19522;DHT22;9905;52.126;5.596;2023-10-19T12:45:39;18.10;99.90
19522;DHT22;9905;52.126;5.596;2023-10-19T12:48:07;18.10;99.90
19522;DHT22;9905;52.126;5.596;2023-10-19T12:50:37;18.10;99.90
19522;DHT22;9905;52.126;5.596;2023-10-19T12:53:05;18.10;99.90
19522;DHT22;9905;52.126;5.596;2023-10-19T12:55:32;18.10;99.90
19522;DHT22;9905;52.126;5.596;2023-10-19T12:58:00;18.10;99.90
19522;DHT22;9905;52.126;5.596;2023-10-19T13:00:32;18.00;99.90
19522;DHT22;9905;52.126;5.596;2023-10-19T13:03:07;18.00;99.90
19522;DHT22;9905;52.126;5.596;2023-10-19T13:05:34;18.00;99.90
19522;DHT22;9905;52.126;5.596;2023-10-19T13:08:03;18.00;99.90
19522;DHT22;9905;52.126;5.596;2023-10-19T13:10:33;17.90;99.90
19522;DHT22;9905;52.126;5.596;2023-10-19T13:13:04;17.90;99.90
19522;DHT22;9905;52.126;5.596;2023-10-19T13:15:31;17.90;99.90
19522;DHT22;9905;52.126;5.596;2023-10-19T13:18:00;17.90;99.90
19522;DHT22;9905;52.126;5.596;2023-10-19T13:20:27;17.90;99.90
19522;DHT22;9905;52.126;5.596;2023-10-19T13:22:59;17.80;99.90
19522;DHT22;9905;52.126;5.596;2023-10-19T13:25:26;17.80;99.90
19522;DHT22;9905;52.126;5.596;2023-10-19T13:28:07;17.80;99.90
19522;DHT22;9905;52.126;5.596;2023-10-19T13:30:38;17.70;99.90
19522;DHT22;9905;52.126;5.596;2023-10-19T13:33:05;17.70;99.90
19522;DHT22;9905;52.126;5.596;2023-10-19T13:35:35;17.70;99.90
19522;DHT22;9905;52.126;5.596;2023-10-19T13:38:01;17.60;99.90
19522;DHT22;9905;52.126;5.596;2023-10-19T13:40:29;17.50;99.90
19522;DHT22;9905;52.126;5.596;2023-10-19T13:42:56;17.50;99.90
19522;DHT22;9905;52.126;5.596;2023-10-19T13:45:25;17.40;99.90
19522;DHT22;9905;52.126;5.596;2023-10-19T13:47:52;17.30;99.90
19522;DHT22;9905;52.126;5.596;2023-10-19T13:50:21;17.30;99.90
19522;DHT22;9905;52.126;5.596;2023-10-19T13:52:49;17.20;99.90
19522;DHT22;9905;52.126;5.596;2023-10-19T13:55:16;17.20;99.90
19522;DHT22;9905;52.126;5.596;2023-10-19T13:57:44;17.20;99.90
19522;DHT22;9905;52.126;5.596;2023-10-19T14:00:11;17.20;99.90
19522;DHT22;9905;52.126;5.596;2023-10-19T14:02:46;17.20;99.90
19522;DHT22;9905;52.126;5.596;2023-10-19T14:05:14;17.20;99.90
19522;DHT22;9905;52.126;5.596;2023-10-19T14:07:41;17.20;99.90
19522;DHT22;9905;52.126;5.596;2023-10-19T14:10:09;17.30;99.90
19522;DHT22;9905;52.126;5.596;2023-10-19T14:12:38;17.30;99.90
19522;DHT22;9905;52.126;5.596;2023-10-19T14:15:10;17.30;99.90
19522;DHT22;9905;52.126;5.596;2023-10-19T14:17:37;17.30;99.90
19522;DHT22;9905;52.126;5.596;2023-10-19T14:20:06;17.30;99.90
19522;DHT22;9905;52.126;5.596;2023-10-19T14:22:38;17.20;99.90
19522;DHT22;9905;52.126;5.596;2023-10-19T14:25:06;17.20;99.90
19522;DHT22;9905;52.126;5.596;2023-10-19T14:27:35;17.20;99.90
19522;DHT22;9905;52.126;5.596;2023-10-19T14:30:03;17.20;99.90
19522;DHT22;9905;52.126;5.596;2023-10-19T14:32:30;17.20;99.90
19522;DHT22;9905;52.126;5.596;2023-10-19T14:34:57;17.20;99.90
19522;DHT22;9905;52.126;5.596;2023-10-19T14:37:26;17.20;99.90
19522;DHT22;9905;52.126;5.596;2023-10-19T14:39:53;17.10;99.90
19522;DHT22;9905;52.126;5.596;2023-10-19T14:42:19;17.10;99.90
19522;DHT22;9905;52.126;5.596;2023-10-19T14:44:46;17.10;99.90
19522;DHT22;9905;52.126;5.596;2023-10-19T14:47:13;17.10;99.90
19522;DHT22;9905;52.126;5.596;2023-10-19T14:49:39;17.10;99.90
19522;DHT22;9905;52.126;5.596;2023-10-19T14:52:06;17.00;99.90
19522;DHT22;9905;52.126;5.596;2023-10-19T14:54:34;17.00;99.90
19522;DHT22;9905;52.126;5.596;2023-10-19T14:57:01;17.00;99.90
19522;DHT22;9905;52.126;5.596;2023-10-19T14:59:28;17.00;99.90
19522;DHT22;9905;52.126;5.596;2023-10-19T15:01:55;17.00;99.90
19522;DHT22;9905;52.126;5.596;2023-10-19T15:04:21;17.00;99.90
19522;DHT22;9905;52.126;5.596;2023-10-19T15:06:48;17.00;99.90
19522;DHT22;9905;52.126;5.596;2023-10-19T15:09:15;17.00;99.90
19522;DHT22;9905;52.126;5.596;2023-10-19T15:11:47;17.00;99.90
19522;DHT22;9905;52.126;5.596;2023-10-19T15:14:14;17.00;99.90
19522;DHT22;9905;52.126;5.596;2023-10-19T15:16:41;16.90;99.90
19522;DHT22;9905;52.126;5.596;2023-10-19T15:19:09;16.90;99.90
19522;DHT22;9905;52.126;5.596;2023-10-19T15:21:37;16.90;99.90
19522;DHT22;9905;52.126;5.596;2023-10-19T15:24:05;16.90;99.90
19522;DHT22;9905;52.126;5.596;2023-10-19T15:26:31;16.90;99.90
19522;DHT22;9905;52.126;5.596;2023-10-19T15:29:00;16.80;99.90
19522;DHT22;9905;52.126;5.596;2023-10-19T15:31:26;16.90;99.90
19522;DHT22;9905;52.126;5.596;2023-10-19T15:33:53;16.80;99.90
19522;DHT22;9905;52.126;5.596;2023-10-19T15:36:20;16.80;99.90
19522;DHT22;9905;52.126;5.596;2023-10-19T15:38:47;16.80;99.90
19522;DHT22;9905;52.126;5.596;2023-10-19T15:41:14;16.70;99.90
19522;DHT22;9905;52.126;5.596;2023-10-19T15:43:41;16.70;99.90
19522;DHT22;9905;52.126;5.596;2023-10-19T15:46:09;16.70;99.90
19522;DHT22;9905;52.126;5.596;2023-10-19T15:48:39;16.60;99.90
19522;DHT22;9905;52.126;5.596;2023-10-19T15:51:06;16.60;99.90
19522;DHT22;9905;52.126;5.596;2023-10-19T15:53:33;16.60;99.90
19522;DHT22;9905;52.126;5.596;2023-10-19T15:56:00;16.60;99.90